createdAt,value
2023-04-23T00:00:29.450Z,26.50
2023-04-23T00:03:19.581Z,23.90
2023-04-23T00:05:48.134Z,19.90
2023-04-23T00:08:19.276Z,22.90
2023-04-23T00:10:47.560Z,28.20
2023-04-23T00:13:15.628Z,25.70
2023-04-23T00:15:43.854Z,21.20
2023-04-23T00:18:11.606Z,22.40
2023-04-23T00:20:39.343Z,24.50
2023-04-23T00:23:07.665Z,21.60
2023-04-23T00:25:35.525Z,20.80
2023-04-23T00:28:03.774Z,22.30
2023-04-23T00:30:31.544Z,20.60
2023-04-23T00:32:59.461Z,22.80
2023-04-23T00:35:27.261Z,26.20
2023-04-23T00:37:55.759Z,21.40
2023-04-23T00:40:23.674Z,24.40
2023-04-23T00:42:53.850Z,23.40
2023-04-23T00:45:21.974Z,26.30
2023-04-23T00:47:49.984Z,23.90
2023-04-23T00:50:18.102Z,23.50
2023-04-23T00:52:45.802Z,25.20
2023-04-23T00:55:13.605Z,29.50
2023-04-23T00:57:42.444Z,27.40
2023-04-23T01:00:13.986Z,27.00
2023-04-23T01:02:43.579Z,22.70
2023-04-23T01:05:12.299Z,27.00
2023-04-23T01:07:40.748Z,23.20
2023-04-23T01:10:09.270Z,25.70
2023-04-23T01:12:36.976Z,24.80
2023-04-23T01:15:06.120Z,26.40
2023-04-23T01:17:34.485Z,28.50
2023-04-23T01:20:02.814Z,27.50
2023-04-23T01:22:30.655Z,27.00
2023-04-23T01:24:58.469Z,26.20
2023-04-23T01:27:26.328Z,28.80
2023-04-23T01:29:54.306Z,28.80
2023-04-23T01:32:22.103Z,28.00
2023-04-23T01:34:51.961Z,30.50
2023-04-23T01:37:19.986Z,27.90
2023-04-23T01:39:47.903Z,27.00
2023-04-23T01:42:16.156Z,30.40
2023-04-23T01:44:44.257Z,27.50
2023-04-23T01:47:12.166Z,27.00
2023-04-23T01:49:40.843Z,31.50
2023-04-23T01:52:09.236Z,33.70
2023-04-23T01:54:37.069Z,28.70
2023-04-23T01:57:05.356Z,27.80
2023-04-23T01:59:33.556Z,32.50
2023-04-23T02:02:01.444Z,28.00
2023-04-23T02:04:29.768Z,28.70
2023-04-23T02:06:57.852Z,28.50
2023-04-23T02:09:25.633Z,27.80
2023-04-23T02:11:53.404Z,31.40
2023-04-23T02:14:21.277Z,30.20
2023-04-23T02:16:49.683Z,33.20
2023-04-23T02:19:18.374Z,27.50
2023-04-23T02:21:46.809Z,28.00
2023-04-23T02:24:14.583Z,30.70
2023-04-23T02:26:42.289Z,31.00
2023-04-23T02:29:12.825Z,26.50
2023-04-23T02:31:40.635Z,26.50
2023-04-23T02:34:08.414Z,30.40
2023-04-23T02:36:36.634Z,28.00
2023-04-23T02:39:04.446Z,26.80
2023-04-23T02:41:32.252Z,26.60
2023-04-23T02:43:59.998Z,27.20
2023-04-23T02:46:28.915Z,30.60
2023-04-23T02:48:56.668Z,30.30
2023-04-23T02:51:24.575Z,28.70
2023-04-23T02:53:52.279Z,28.30
2023-04-23T02:56:20.872Z,28.60
2023-04-23T02:58:48.597Z,26.80
2023-04-23T03:01:16.751Z,30.90
2023-04-23T03:03:44.863Z,26.60
2023-04-23T03:06:13.121Z,30.30
2023-04-23T03:08:41.059Z,33.40
2023-04-23T03:11:09.013Z,29.70
2023-04-23T03:13:36.748Z,27.30
2023-04-23T03:16:04.893Z,31.00
2023-04-23T03:18:32.614Z,28.90
2023-04-23T03:21:00.390Z,27.70
2023-04-23T03:23:28.671Z,27.60
2023-04-23T03:25:56.597Z,26.70
2023-04-23T03:28:24.607Z,26.70
2023-04-23T03:30:52.414Z,29.10
2023-04-23T03:33:20.754Z,25.80
2023-04-23T03:35:48.789Z,29.70
2023-04-23T03:38:19.546Z,27.90
2023-04-23T03:40:47.399Z,24.50
2023-04-23T03:43:15.784Z,27.80
2023-04-23T03:46:04.147Z,27.20
2023-04-23T03:48:35.218Z,29.80
2023-04-23T03:51:05.902Z,25.40
2023-04-23T03:53:41.339Z,27.40
2023-04-23T03:56:28.175Z,28.40
2023-04-23T03:59:17.983Z,24.90
2023-04-23T04:01:50.373Z,25.10
2023-04-23T04:04:19.290Z,25.40
2023-04-23T04:06:47.466Z,25.30
2023-04-23T04:09:15.417Z,27.40
2023-04-23T04:11:43.178Z,27.80
2023-04-23T04:14:10.981Z,26.50
2023-04-23T04:16:38.772Z,28.20
2023-04-23T04:19:07.710Z,25.30
2023-04-23T04:21:35.760Z,25.30
2023-04-23T04:24:05.003Z,23.90
2023-04-23T04:26:33.037Z,22.60
2023-04-23T04:29:01.649Z,24.10
2023-04-23T04:31:29.745Z,25.00
2023-04-23T04:33:57.935Z,24.20
2023-04-23T04:36:27.105Z,29.30
2023-04-23T04:39:00.968Z,22.60
2023-04-23T04:41:28.707Z,22.70
2023-04-23T04:43:56.798Z,24.40
2023-04-23T04:46:26.180Z,24.50
2023-04-23T04:48:54.256Z,21.90
2023-04-23T04:51:22.010Z,22.70
2023-04-23T04:53:49.862Z,23.70
2023-04-23T04:56:17.751Z,24.30
2023-04-23T04:58:45.491Z,27.70
2023-04-23T05:01:13.513Z,21.70
2023-04-23T05:03:41.505Z,22.10
2023-04-23T05:06:09.389Z,25.20
2023-04-23T05:08:37.384Z,22.60
2023-04-23T05:11:05.190Z,22.70
2023-04-23T05:13:33.118Z,25.30
2023-04-23T05:16:01.429Z,20.60
2023-04-23T05:18:29.655Z,25.20
2023-04-23T05:20:57.401Z,24.60
2023-04-23T05:23:25.193Z,23.80
2023-04-23T05:25:56.005Z,25.20
2023-04-23T05:28:23.784Z,21.90
2023-04-23T05:30:52.224Z,22.60
2023-04-23T05:33:20.063Z,22.80
2023-04-23T05:35:47.868Z,25.40
2023-04-23T05:38:15.612Z,27.80
2023-04-23T05:40:43.754Z,21.60
2023-04-23T05:43:12.405Z,23.80
2023-04-23T05:45:40.369Z,22.90
2023-04-23T05:48:08.099Z,20.50
2023-04-23T05:50:35.917Z,26.70
2023-04-23T05:53:03.938Z,25.70
2023-04-23T05:55:31.667Z,20.40
2023-04-23T05:57:59.548Z,22.00
2023-04-23T06:00:27.426Z,21.30
2023-04-23T06:02:55.309Z,21.80
2023-04-23T06:05:23.597Z,18.30
2023-04-23T06:07:51.492Z,19.80
2023-04-23T06:10:19.339Z,23.00
2023-04-23T06:12:47.389Z,19.90
2023-04-23T06:15:15.794Z,16.60
2023-04-23T06:17:43.626Z,18.20
2023-04-23T06:20:12.150Z,16.90
2023-04-23T06:22:40.201Z,16.40
2023-04-23T06:25:08.573Z,18.20
2023-04-23T06:27:36.296Z,17.40
2023-04-23T06:30:09.437Z,16.70
2023-04-23T06:32:37.388Z,17.30
2023-04-23T06:35:06.978Z,15.40
2023-04-23T06:37:35.280Z,15.70
2023-04-23T06:40:03.366Z,15.00
2023-04-23T06:42:31.228Z,16.20
2023-04-23T06:45:16.298Z,15.50
2023-04-23T06:47:44.021Z,20.00
2023-04-23T06:50:11.775Z,13.90
2023-04-23T06:52:39.715Z,16.90
2023-04-23T06:55:08.534Z,18.90
2023-04-23T06:57:36.488Z,15.10
2023-04-23T07:00:08.338Z,13.40
2023-04-23T07:02:38.904Z,14.50
2023-04-23T07:05:07.851Z,13.50
2023-04-23T07:07:37.405Z,14.00
2023-04-23T07:10:06.138Z,12.90
2023-04-23T07:12:33.910Z,13.20
2023-04-23T07:15:01.869Z,8.70
2023-04-23T07:17:29.628Z,12.10
2023-04-23T07:19:57.381Z,9.50
2023-04-23T07:22:26.428Z,10.10
2023-04-23T07:24:54.594Z,11.10
2023-04-23T07:27:22.430Z,8.30
2023-04-23T07:29:50.210Z,10.30
2023-04-23T07:32:18.063Z,8.80
2023-04-23T07:34:46.057Z,6.50
2023-04-23T07:37:13.815Z,7.00
2023-04-23T07:39:43.910Z,9.00
2023-04-23T07:42:12.193Z,11.00
2023-04-23T07:44:39.901Z,7.70
2023-04-23T07:47:07.869Z,7.50
2023-04-23T07:49:35.703Z,6.90
2023-04-23T07:52:03.636Z,9.90
2023-04-23T07:54:31.347Z,10.10
2023-04-23T07:56:59.047Z,9.80
2023-04-23T07:59:26.791Z,7.70
2023-04-23T13:02:36.044Z,26.60
2023-04-23T13:05:05.550Z,5.80
2023-04-23T13:07:33.299Z,4.30
2023-04-23T13:10:01.022Z,2.90
2023-04-23T13:12:28.829Z,2.10
2023-04-23T13:14:56.843Z,8.30
2023-04-23T13:17:26.285Z,3.30
2023-04-23T13:19:55.705Z,15.80
2023-04-23T13:22:28.430Z,5.10
2023-04-23T13:24:59.718Z,20.10
2023-04-23T13:27:29.447Z,6.90
2023-04-23T13:29:57.226Z,4.50
2023-04-23T13:32:27.285Z,4.70
2023-04-23T13:34:55.704Z,4.30
2023-04-23T13:37:24.574Z,3.20
2023-04-23T13:39:52.397Z,4.00
2023-04-23T13:42:20.200Z,5.80
2023-04-23T13:44:47.913Z,4.70
2023-04-23T13:47:15.944Z,4.90
2023-04-23T13:49:43.899Z,3.10
2023-04-23T13:52:11.871Z,3.80
2023-04-23T13:54:40.006Z,4.10
2023-04-23T13:57:07.853Z,4.90
2023-04-23T13:59:36.107Z,8.30
2023-04-23T14:02:03.781Z,5.00
2023-04-23T14:04:31.637Z,6.50
2023-04-23T14:06:59.654Z,4.60
2023-04-23T14:09:27.490Z,5.60
2023-04-23T14:11:56.231Z,5.30
2023-04-23T14:14:24.034Z,4.60
2023-04-23T14:16:51.767Z,4.70
2023-04-23T14:19:19.768Z,5.20
2023-04-23T14:21:47.744Z,6.00
2023-04-23T14:24:38.649Z,7.70
2023-04-23T14:27:06.404Z,7.70
2023-04-23T14:29:45.444Z,5.10
2023-04-23T14:32:13.708Z,5.40
2023-04-23T14:34:41.521Z,7.90
2023-04-23T14:37:09.729Z,5.10
2023-04-23T14:39:37.515Z,6.80
2023-04-23T14:42:05.544Z,6.70
2023-04-23T14:44:33.449Z,6.10
2023-04-23T14:47:01.356Z,5.70
2023-04-23T14:49:29.189Z,4.60
2023-04-23T14:51:58.169Z,4.70
2023-04-23T14:54:26.213Z,6.90
2023-04-23T14:56:55.530Z,5.50
2023-04-23T14:59:23.883Z,4.70
2023-04-23T15:01:51.756Z,5.70
2023-04-23T15:04:19.684Z,6.00
2023-04-23T15:06:47.611Z,5.60
2023-04-23T15:09:15.789Z,5.60
2023-04-23T15:11:43.712Z,4.90
2023-04-23T15:14:26.052Z,4.70
2023-04-23T15:16:54.173Z,6.10
2023-04-23T15:19:22.126Z,4.20
2023-04-23T15:21:49.901Z,4.40
2023-04-23T15:24:17.653Z,5.30
2023-04-23T15:26:49.551Z,4.20
2023-04-23T15:29:17.432Z,5.00
2023-04-23T15:31:45.499Z,5.00
2023-04-23T15:34:13.531Z,4.90
2023-04-23T15:36:41.242Z,7.70
2023-04-23T15:39:09.366Z,5.50
2023-04-23T15:41:40.254Z,4.90
2023-04-23T15:44:11.203Z,7.20
2023-04-23T15:46:39.049Z,5.50
2023-04-23T15:49:06.788Z,7.20
2023-04-23T15:51:36.138Z,5.00
2023-04-23T15:54:07.982Z,10.30
2023-04-23T15:59:03.797Z,5.90
2023-04-23T16:01:31.600Z,5.00
2023-04-23T16:04:09.773Z,5.70
2023-04-23T16:06:39.293Z,5.50
2023-04-23T16:09:08.485Z,4.80
2023-04-23T16:11:37.777Z,4.40
2023-04-23T16:14:06.588Z,4.10
2023-04-23T16:16:34.884Z,3.90
2023-04-23T16:19:03.044Z,3.80
2023-04-23T16:21:32.181Z,6.90
2023-04-23T16:24:00.038Z,7.40
2023-04-23T16:26:29.083Z,4.50
2023-04-23T16:29:11.649Z,5.10
2023-04-23T16:31:45.399Z,5.20
2023-04-23T16:34:13.158Z,3.30
2023-04-23T16:36:40.992Z,4.70
2023-04-23T16:39:09.016Z,4.30
2023-04-23T16:41:39.446Z,4.80
2023-04-23T16:44:07.407Z,3.40
2023-04-23T16:46:35.266Z,4.00
2023-04-23T16:49:03.249Z,4.00
2023-04-23T16:51:32.515Z,3.90
2023-04-23T16:54:00.913Z,5.80
2023-04-23T16:56:28.767Z,4.50
2023-04-23T16:58:57.038Z,5.60
2023-04-23T17:01:24.873Z,4.30
2023-04-23T17:03:52.819Z,5.70
2023-04-23T17:06:25.964Z,4.20
2023-04-23T17:08:54.968Z,4.00
2023-04-23T17:11:23.202Z,3.80
2023-04-23T17:13:51.973Z,4.60
2023-04-23T17:16:19.839Z,3.50
2023-04-23T17:18:50.371Z,5.60
2023-04-23T17:21:19.010Z,3.40
2023-04-23T17:23:47.286Z,3.40
2023-04-23T17:26:15.068Z,3.90
2023-04-23T17:28:42.917Z,4.80
2023-04-23T17:31:11.387Z,4.30
2023-04-23T17:33:39.505Z,5.90
2023-04-23T17:36:07.239Z,3.60
2023-04-23T17:38:34.956Z,3.70
2023-04-23T17:41:03.522Z,4.80
2023-04-23T17:43:40.078Z,6.70
2023-04-23T17:46:07.992Z,4.40
2023-04-23T17:48:35.760Z,3.50
2023-04-23T17:51:03.648Z,3.80
2023-04-23T17:53:31.521Z,4.50
2023-04-23T17:56:00.346Z,4.10
2023-04-23T17:58:28.529Z,4.40
2023-04-23T18:00:56.814Z,4.80
2023-04-23T18:03:24.962Z,3.30
2023-04-23T18:05:52.853Z,4.40
2023-04-23T18:08:21.397Z,3.90
2023-04-23T18:10:49.487Z,4.40
2023-04-23T18:13:18.343Z,3.80
2023-04-23T18:15:50.204Z,3.40
2023-04-23T18:20:47.730Z,3.90
2023-04-23T18:23:15.841Z,4.70
2023-04-23T18:25:43.778Z,4.00
2023-04-23T18:28:11.715Z,4.00
2023-04-23T18:30:39.821Z,3.80
2023-04-23T18:33:13.932Z,3.90
2023-04-23T18:35:44.827Z,4.30
2023-04-23T18:38:24.330Z,3.50
2023-04-23T18:40:52.156Z,5.80
2023-04-23T18:43:20.260Z,4.30
2023-04-23T18:45:48.063Z,3.70
2023-04-23T18:48:33.866Z,3.60
2023-04-23T18:51:04.930Z,8.60
2023-04-23T18:53:32.756Z,4.40
2023-04-23T18:56:01.352Z,5.90
2023-04-23T18:58:30.257Z,6.10
2023-04-23T19:00:58.380Z,12.70
2023-04-23T19:03:27.424Z,8.00
2023-04-23T19:05:55.541Z,8.20
2023-04-23T19:08:28.460Z,8.00
2023-04-23T19:10:57.344Z,6.70
2023-04-23T19:13:25.270Z,6.70
2023-04-23T19:15:53.053Z,6.40
2023-04-23T19:18:21.814Z,9.30
2023-04-23T19:20:49.586Z,6.90
2023-04-23T19:23:17.342Z,7.50
2023-04-23T19:25:45.130Z,5.60
2023-04-23T19:28:13.195Z,4.80
2023-04-23T19:30:40.958Z,6.20
2023-04-23T19:33:10.312Z,5.50
2023-04-23T19:35:40.055Z,5.00
2023-04-23T19:38:08.775Z,7.30
2023-04-23T19:40:36.575Z,7.40
2023-04-23T19:43:04.315Z,9.40
2023-04-23T19:45:32.516Z,6.20
2023-04-23T19:48:01.064Z,5.20
2023-04-23T19:50:29.671Z,6.20
2023-04-23T19:52:57.488Z,7.40
2023-04-23T19:55:27.385Z,11.80
2023-04-23T19:57:56.576Z,7.20
2023-04-23T20:00:25.719Z,7.30
2023-04-23T20:02:55.731Z,8.10
2023-04-23T20:05:23.780Z,7.80
2023-04-23T20:07:52.675Z,6.50
2023-04-23T20:10:20.748Z,5.40
2023-04-23T20:12:48.600Z,5.70
2023-04-23T20:15:16.480Z,5.30
2023-04-23T20:17:44.268Z,7.40
2023-04-23T20:20:12.086Z,6.70
2023-04-23T20:22:40.074Z,5.70
2023-04-23T20:25:08.591Z,7.20
2023-04-23T20:27:36.497Z,6.50
2023-04-23T20:30:06.015Z,6.80
2023-04-23T20:32:34.101Z,6.80
2023-04-23T20:35:02.322Z,14.00
2023-04-23T20:37:30.124Z,10.30
2023-04-23T20:39:58.521Z,9.30
2023-04-23T20:42:29.066Z,11.60
2023-04-23T20:44:56.897Z,7.00
2023-04-23T20:47:24.673Z,8.00
2023-04-23T20:49:52.529Z,8.10
2023-04-23T20:52:20.353Z,8.30
2023-04-23T20:54:48.061Z,9.60
2023-04-23T20:57:16.045Z,9.00
2023-04-23T20:59:44.126Z,10.10
2023-04-23T21:02:13.008Z,7.10
2023-04-23T21:04:41.082Z,9.00
2023-04-23T21:07:09.023Z,7.60
2023-04-23T21:09:36.725Z,10.90
2023-04-23T21:12:04.746Z,9.30
2023-04-23T21:14:33.394Z,10.90
2023-04-23T21:17:01.142Z,8.60
2023-04-23T21:19:28.976Z,8.70
2023-04-23T21:21:56.713Z,9.90
2023-04-23T21:24:24.500Z,8.20
2023-04-23T21:26:52.305Z,9.00
2023-04-23T21:29:20.683Z,10.30
2023-04-23T21:31:51.570Z,9.90
2023-04-23T21:34:19.760Z,12.00
2023-04-23T21:36:48.542Z,10.00
2023-04-23T21:39:16.533Z,10.50
2023-04-23T21:41:45.193Z,11.30
2023-04-23T21:44:13.306Z,9.50
2023-04-23T21:46:43.235Z,9.80
2023-04-23T21:49:11.367Z,10.90
2023-04-23T21:51:41.089Z,12.10
2023-04-23T21:54:09.267Z,11.20
2023-04-23T21:56:37.264Z,13.70
2023-04-23T21:59:05.209Z,12.70
2023-04-23T22:01:35.190Z,13.50
2023-04-23T22:04:05.036Z,14.30
2023-04-23T22:06:34.416Z,15.10
2023-04-23T22:09:02.400Z,15.30
2023-04-23T22:11:31.377Z,14.00
2023-04-23T22:14:00.073Z,14.90
2023-04-23T22:16:29.148Z,15.30
2023-04-23T22:18:57.760Z,13.40
2023-04-23T22:21:25.755Z,13.00
2023-04-23T22:23:53.621Z,14.20
2023-04-23T22:26:21.776Z,13.90
2023-04-23T22:28:49.518Z,12.70
2023-04-23T22:31:18.394Z,14.30
2023-04-23T22:33:46.439Z,14.80
2023-04-23T22:36:14.403Z,17.40
2023-04-23T22:38:42.288Z,13.20
2023-04-23T22:41:10.171Z,13.20
2023-04-23T22:43:37.908Z,14.20
2023-04-23T22:46:05.843Z,14.70
2023-04-23T22:48:33.993Z,13.50
2023-04-23T22:51:03.369Z,12.40
2023-04-23T22:53:32.749Z,11.90
2023-04-23T22:56:01.092Z,12.60
2023-04-23T22:58:29.021Z,15.20
2023-04-23T23:00:56.848Z,15.00
2023-04-23T23:03:25.434Z,15.10
2023-04-23T23:05:53.371Z,18.80
2023-04-23T23:08:21.569Z,17.40
2023-04-23T23:10:49.440Z,16.70
2023-04-23T23:13:17.215Z,15.10
2023-04-23T23:15:45.024Z,13.20
2023-04-23T23:18:12.783Z,15.00
2023-04-23T23:20:41.122Z,13.20
2023-04-23T23:23:09.042Z,13.20
2023-04-23T23:25:38.367Z,18.60
2023-04-23T23:28:06.283Z,13.70
2023-04-23T23:30:34.323Z,14.10
2023-04-23T23:33:02.165Z,12.60
2023-04-23T23:35:30.119Z,12.20
2023-04-23T23:37:57.915Z,15.40
2023-04-23T23:40:25.697Z,12.40
2023-04-23T23:42:54.133Z,13.20
2023-04-23T23:45:21.864Z,12.30
2023-04-23T23:47:49.662Z,11.50
2023-04-23T23:50:17.457Z,15.70
2023-04-23T23:52:45.284Z,14.70
2023-04-23T23:55:13.079Z,15.60
2023-04-23T23:57:41.284Z,17.90
